sensor_id;sensor_type;location;lat;lon;timestamp;P1;durP1;ratioP1;P2;durP2;ratioP2
209;SDS011;90;48.810;9.120;2022-12-07T00:01:41;22.50;;;12.35;;
209;SDS011;90;48.810;9.120;2022-12-07T00:04:12;22.55;;;11.18;;
209;SDS011;90;48.810;9.120;2022-12-07T00:06:42;22.77;;;11.63;;
209;SDS011;90;48.810;9.120;2022-12-07T00:09:11;32.35;;;11.55;;
209;SDS011;90;48.810;9.120;2022-12-07T00:11:39;22.23;;;11.70;;
209;SDS011;90;48.810;9.120;2022-12-07T00:14:07;18.48;;;11.55;;
209;SDS011;90;48.810;9.120;2022-12-07T00:16:37;21.92;;;12.30;;
209;SDS011;90;48.810;9.120;2022-12-07T00:19:04;20.33;;;11.95;;
209;SDS011;90;48.810;9.120;2022-12-07T00:21:33;19.75;;;12.02;;
209;SDS011;90;48.810;9.120;2022-12-07T00:24:03;18.38;;;11.90;;
209;SDS011;90;48.810;9.120;2022-12-07T00:26:32;21.50;;;12.63;;
209;SDS011;90;48.810;9.120;2022-12-07T00:29:02;22.27;;;12.50;;
209;SDS011;90;48.810;9.120;2022-12-07T00:31:31;20.50;;;12.90;;
209;SDS011;90;48.810;9.120;2022-12-07T00:34:01;22.00;;;12.80;;
209;SDS011;90;48.810;9.120;2022-12-07T00:36:28;21.92;;;12.85;;
209;SDS011;90;48.810;9.120;2022-12-07T00:38:58;23.00;;;13.57;;
209;SDS011;90;48.810;9.120;2022-12-07T00:41:26;22.60;;;13.40;;
209;SDS011;90;48.810;9.120;2022-12-07T00:43:54;24.15;;;13.07;;
209;SDS011;90;48.810;9.120;2022-12-07T00:46:22;21.85;;;13.35;;
209;SDS011;90;48.810;9.120;2022-12-07T00:48:50;22.63;;;13.30;;
209;SDS011;90;48.810;9.120;2022-12-07T00:51:18;23.58;;;13.20;;
209;SDS011;90;48.810;9.120;2022-12-07T00:53:46;22.55;;;12.68;;
209;SDS011;90;48.810;9.120;2022-12-07T00:56:16;18.95;;;11.10;;
209;SDS011;90;48.810;9.120;2022-12-07T00:58:49;20.15;;;11.80;;
209;SDS011;90;48.810;9.120;2022-12-07T01:01:18;24.23;;;12.38;;
209;SDS011;90;48.810;9.120;2022-12-07T01:03:45;22.65;;;13.05;;
209;SDS011;90;48.810;9.120;2022-12-07T01:06:13;23.15;;;13.15;;
209;SDS011;90;48.810;9.120;2022-12-07T01:08:44;25.65;;;13.15;;
209;SDS011;90;48.810;9.120;2022-12-07T01:11:12;23.85;;;13.10;;
209;SDS011;90;48.810;9.120;2022-12-07T01:13:41;23.15;;;12.38;;
209;SDS011;90;48.810;9.120;2022-12-07T01:16:10;28.25;;;13.23;;
209;SDS011;90;48.810;9.120;2022-12-07T01:18:38;22.60;;;12.27;;
209;SDS011;90;48.810;9.120;2022-12-07T01:21:06;23.73;;;12.60;;
209;SDS011;90;48.810;9.120;2022-12-07T01:23:35;25.25;;;12.40;;
209;SDS011;90;48.810;9.120;2022-12-07T01:26:04;20.33;;;12.07;;
209;SDS011;90;48.810;9.120;2022-12-07T01:28:33;26.13;;;14.05;;
209;SDS011;90;48.810;9.120;2022-12-07T01:31:02;22.40;;;12.38;;
209;SDS011;90;48.810;9.120;2022-12-07T01:33:32;24.60;;;13.13;;
209;SDS011;90;48.810;9.120;2022-12-07T01:36:00;22.05;;;12.32;;
209;SDS011;90;48.810;9.120;2022-12-07T01:38:29;24.10;;;13.43;;
209;SDS011;90;48.810;9.120;2022-12-07T01:40:56;29.27;;;14.27;;
209;SDS011;90;48.810;9.120;2022-12-07T01:43:25;27.65;;;14.13;;
209;SDS011;90;48.810;9.120;2022-12-07T01:45:54;22.00;;;12.52;;
209;SDS011;90;48.810;9.120;2022-12-07T01:48:24;22.30;;;12.50;;
209;SDS011;90;48.810;9.120;2022-12-07T01:50:55;24.65;;;13.73;;
209;SDS011;90;48.810;9.120;2022-12-07T01:53:27;18.05;;;11.57;;
209;SDS011;90;48.810;9.120;2022-12-07T01:55:56;24.50;;;13.30;;
209;SDS011;90;48.810;9.120;2022-12-07T01:58:24;23.63;;;12.48;;
209;SDS011;90;48.810;9.120;2022-12-07T02:00:52;19.70;;;11.23;;
209;SDS011;90;48.810;9.120;2022-12-07T02:03:20;22.40;;;13.00;;
209;SDS011;90;48.810;9.120;2022-12-07T02:05:53;19.95;;;12.27;;
209;SDS011;90;48.810;9.120;2022-12-07T02:08:21;22.70;;;12.70;;
209;SDS011;90;48.810;9.120;2022-12-07T02:10:48;24.08;;;13.43;;
209;SDS011;90;48.810;9.120;2022-12-07T02:13:16;20.33;;;11.68;;
209;SDS011;90;48.810;9.120;2022-12-07T02:15:56;20.75;;;12.45;;
209;SDS011;90;48.810;9.120;2022-12-07T02:18:37;22.25;;;12.63;;
209;SDS011;90;48.810;9.120;2022-12-07T02:21:18;22.88;;;12.60;;
209;SDS011;90;48.810;9.120;2022-12-07T02:26:51;24.55;;;13.43;;
209;SDS011;90;48.810;9.120;2022-12-07T02:29:39;19.83;;;11.55;;
209;SDS011;90;48.810;9.120;2022-12-07T02:32:12;24.23;;;12.60;;
209;SDS011;90;48.810;9.120;2022-12-07T02:34:46;23.10;;;12.20;;
209;SDS011;90;48.810;9.120;2022-12-07T02:37:21;18.20;;;11.02;;
209;SDS011;90;48.810;9.120;2022-12-07T02:39:59;21.60;;;12.00;;
209;SDS011;90;48.810;9.120;2022-12-07T02:42:31;20.75;;;12.05;;
209;SDS011;90;48.810;9.120;2022-12-07T02:45:05;23.80;;;12.63;;
209;SDS011;90;48.810;9.120;2022-12-07T02:47:34;24.25;;;12.02;;
209;SDS011;90;48.810;9.120;2022-12-07T02:50:03;20.02;;;11.30;;
209;SDS011;90;48.810;9.120;2022-12-07T02:52:32;18.33;;;11.10;;
209;SDS011;90;48.810;9.120;2022-12-07T02:54:59;21.83;;;11.80;;
209;SDS011;90;48.810;9.120;2022-12-07T02:57:30;20.27;;;11.52;;
209;SDS011;90;48.810;9.120;2022-12-07T03:00:17;19.88;;;11.00;;
209;SDS011;90;48.810;9.120;2022-12-07T03:02:49;20.45;;;11.73;;
209;SDS011;90;48.810;9.120;2022-12-07T03:05:30;21.15;;;11.07;;
209;SDS011;90;48.810;9.120;2022-12-07T03:08:19;17.70;;;10.50;;
209;SDS011;90;48.810;9.120;2022-12-07T03:10:54;17.95;;;10.73;;
209;SDS011;90;48.810;9.120;2022-12-07T03:13:25;18.95;;;11.32;;
209;SDS011;90;48.810;9.120;2022-12-07T03:16:01;20.25;;;10.93;;
209;SDS011;90;48.810;9.120;2022-12-07T03:18:32;20.30;;;10.30;;
209;SDS011;90;48.810;9.120;2022-12-07T03:21:05;17.70;;;10.40;;
209;SDS011;90;48.810;9.120;2022-12-07T03:23:37;18.15;;;10.82;;
209;SDS011;90;48.810;9.120;2022-12-07T03:26:08;19.58;;;11.15;;
209;SDS011;90;48.810;9.120;2022-12-07T03:28:39;16.73;;;10.82;;
209;SDS011;90;48.810;9.120;2022-12-07T03:31:14;19.63;;;10.90;;
209;SDS011;90;48.810;9.120;2022-12-07T03:33:48;22.25;;;11.40;;
209;SDS011;90;48.810;9.120;2022-12-07T03:36:20;18.05;;;11.35;;
209;SDS011;90;48.810;9.120;2022-12-07T03:38:50;20.75;;;9.95;;
209;SDS011;90;48.810;9.120;2022-12-07T03:41:22;17.15;;;10.43;;
209;SDS011;90;48.810;9.120;2022-12-07T03:43:51;18.40;;;10.63;;
209;SDS011;90;48.810;9.120;2022-12-07T03:46:23;23.05;;;11.95;;
209;SDS011;90;48.810;9.120;2022-12-07T03:48:57;20.38;;;10.55;;
209;SDS011;90;48.810;9.120;2022-12-07T03:51:32;14.95;;;10.25;;
209;SDS011;90;48.810;9.120;2022-12-07T03:54:07;17.27;;;10.05;;
209;SDS011;90;48.810;9.120;2022-12-07T03:56:38;20.15;;;10.68;;
209;SDS011;90;48.810;9.120;2022-12-07T03:59:08;15.60;;;9.60;;
209;SDS011;90;48.810;9.120;2022-12-07T04:01:37;15.57;;;9.48;;
209;SDS011;90;48.810;9.120;2022-12-07T04:04:04;15.75;;;9.88;;
209;SDS011;90;48.810;9.120;2022-12-07T04:06:31;16.77;;;9.95;;
209;SDS011;90;48.810;9.120;2022-12-07T04:08:58;15.68;;;9.48;;
209;SDS011;90;48.810;9.120;2022-12-07T04:11:25;16.42;;;9.75;;
209;SDS011;90;48.810;9.120;2022-12-07T04:13:52;19.92;;;10.45;;
209;SDS011;90;48.810;9.120;2022-12-07T04:16:38;16.85;;;9.48;;
209;SDS011;90;48.810;9.120;2022-12-07T04:19:05;17.77;;;10.18;;
209;SDS011;90;48.810;9.120;2022-12-07T04:21:32;14.27;;;8.88;;
209;SDS011;90;48.810;9.120;2022-12-07T04:23:59;13.85;;;8.45;;
209;SDS011;90;48.810;9.120;2022-12-07T04:26:27;15.55;;;9.30;;
209;SDS011;90;48.810;9.120;2022-12-07T04:28:54;13.88;;;8.85;;
209;SDS011;90;48.810;9.120;2022-12-07T04:31:21;13.30;;;8.75;;
209;SDS011;90;48.810;9.120;2022-12-07T04:33:49;14.07;;;8.07;;
209;SDS011;90;48.810;9.120;2022-12-07T04:36:16;9.73;;;6.72;;
209;SDS011;90;48.810;9.120;2022-12-07T04:38:44;9.98;;;6.70;;
209;SDS011;90;48.810;9.120;2022-12-07T04:41:11;8.80;;;7.00;;
209;SDS011;90;48.810;9.120;2022-12-07T04:43:39;7.20;;;6.00;;
209;SDS011;90;48.810;9.120;2022-12-07T04:46:06;6.63;;;6.18;;
209;SDS011;90;48.810;9.120;2022-12-07T04:48:33;8.45;;;6.40;;
209;SDS011;90;48.810;9.120;2022-12-07T04:51:02;7.25;;;5.80;;
209;SDS011;90;48.810;9.120;2022-12-07T04:53:29;8.88;;;6.35;;
209;SDS011;90;48.810;9.120;2022-12-07T04:55:56;7.55;;;5.70;;
209;SDS011;90;48.810;9.120;2022-12-07T04:58:23;10.35;;;6.65;;
209;SDS011;90;48.810;9.120;2022-12-07T05:00:53;8.77;;;6.20;;
209;SDS011;90;48.810;9.120;2022-12-07T05:03:20;7.68;;;5.53;;
209;SDS011;90;48.810;9.120;2022-12-07T05:05:47;9.50;;;5.93;;
209;SDS011;90;48.810;9.120;2022-12-07T05:08:16;7.15;;;5.57;;
209;SDS011;90;48.810;9.120;2022-12-07T05:10:43;7.97;;;5.43;;
209;SDS011;90;48.810;9.120;2022-12-07T05:13:10;6.55;;;5.40;;
209;SDS011;90;48.810;9.120;2022-12-07T05:15:37;9.15;;;6.68;;
209;SDS011;90;48.810;9.120;2022-12-07T05:18:04;9.00;;;6.18;;
209;SDS011;90;48.810;9.120;2022-12-07T05:20:32;7.03;;;5.93;;
209;SDS011;90;48.810;9.120;2022-12-07T05:22:59;9.95;;;6.90;;
209;SDS011;90;48.810;9.120;2022-12-07T05:25:28;11.35;;;7.68;;
209;SDS011;90;48.810;9.120;2022-12-07T05:27:55;14.80;;;8.48;;
209;SDS011;90;48.810;9.120;2022-12-07T05:30:22;18.30;;;10.77;;
209;SDS011;90;48.810;9.120;2022-12-07T05:32:49;18.48;;;11.40;;
209;SDS011;90;48.810;9.120;2022-12-07T05:35:17;18.17;;;9.45;;
209;SDS011;90;48.810;9.120;2022-12-07T05:37:45;21.65;;;10.75;;
209;SDS011;90;48.810;9.120;2022-12-07T05:40:12;17.98;;;10.75;;
209;SDS011;90;48.810;9.120;2022-12-07T05:42:42;18.58;;;10.45;;
209;SDS011;90;48.810;9.120;2022-12-07T05:45:09;16.38;;;9.35;;
209;SDS011;90;48.810;9.120;2022-12-07T05:47:37;16.27;;;9.73;;
209;SDS011;90;48.810;9.120;2022-12-07T05:50:05;17.25;;;10.05;;
209;SDS011;90;48.810;9.120;2022-12-07T05:52:32;15.35;;;9.40;;
209;SDS011;90;48.810;9.120;2022-12-07T05:54:59;18.85;;;9.82;;
209;SDS011;90;48.810;9.120;2022-12-07T05:57:26;19.55;;;10.23;;
209;SDS011;90;48.810;9.120;2022-12-07T05:59:55;19.38;;;9.85;;
209;SDS011;90;48.810;9.120;2022-12-07T06:02:21;13.88;;;9.30;;
209;SDS011;90;48.810;9.120;2022-12-07T06:04:47;17.33;;;9.40;;
209;SDS011;90;48.810;9.120;2022-12-07T06:07:15;16.33;;;10.10;;
209;SDS011;90;48.810;9.120;2022-12-07T06:09:42;15.98;;;9.75;;
209;SDS011;90;48.810;9.120;2022-12-07T06:12:09;14.25;;;8.98;;
209;SDS011;90;48.810;9.120;2022-12-07T06:14:56;14.82;;;10.00;;
209;SDS011;90;48.810;9.120;2022-12-07T06:17:23;17.73;;;9.77;;
209;SDS011;90;48.810;9.120;2022-12-07T06:19:50;16.13;;;9.88;;
209;SDS011;90;48.810;9.120;2022-12-07T06:22:17;16.77;;;9.48;;
209;SDS011;90;48.810;9.120;2022-12-07T06:24:44;19.23;;;9.90;;
209;SDS011;90;48.810;9.120;2022-12-07T06:27:11;16.73;;;9.77;;
209;SDS011;90;48.810;9.120;2022-12-07T06:29:38;14.05;;;8.77;;
209;SDS011;90;48.810;9.120;2022-12-07T06:32:07;17.80;;;10.32;;
209;SDS011;90;48.810;9.120;2022-12-07T06:34:34;17.00;;;9.98;;
209;SDS011;90;48.810;9.120;2022-12-07T06:37:01;18.67;;;9.63;;
209;SDS011;90;48.810;9.120;2022-12-07T06:39:28;15.95;;;9.95;;
209;SDS011;90;48.810;9.120;2022-12-07T06:41:55;17.92;;;9.15;;
209;SDS011;90;48.810;9.120;2022-12-07T06:44:22;16.50;;;9.68;;
209;SDS011;90;48.810;9.120;2022-12-07T06:46:50;13.20;;;8.57;;
209;SDS011;90;48.810;9.120;2022-12-07T06:49:19;13.52;;;8.32;;
209;SDS011;90;48.810;9.120;2022-12-07T06:51:46;15.88;;;8.27;;
209;SDS011;90;48.810;9.120;2022-12-07T06:54:14;11.75;;;8.05;;
209;SDS011;90;48.810;9.120;2022-12-07T06:56:41;12.10;;;7.68;;
209;SDS011;90;48.810;9.120;2022-12-07T06:59:08;12.15;;;7.40;;
209;SDS011;90;48.810;9.120;2022-12-07T07:01:36;10.60;;;7.25;;
209;SDS011;90;48.810;9.120;2022-12-07T07:04:03;11.75;;;7.45;;
209;SDS011;90;48.810;9.120;2022-12-07T07:06:31;12.23;;;7.43;;
209;SDS011;90;48.810;9.120;2022-12-07T07:08:58;12.68;;;7.07;;
209;SDS011;90;48.810;9.120;2022-12-07T07:11:25;10.55;;;7.35;;
209;SDS011;90;48.810;9.120;2022-12-07T07:13:52;10.18;;;7.10;;
209;SDS011;90;48.810;9.120;2022-12-07T07:16:22;11.23;;;7.47;;
209;SDS011;90;48.810;9.120;2022-12-07T07:18:50;10.85;;;7.10;;
209;SDS011;90;48.810;9.120;2022-12-07T07:21:17;7.43;;;6.05;;
209;SDS011;90;48.810;9.120;2022-12-07T07:23:45;11.07;;;7.28;;
209;SDS011;90;48.810;9.120;2022-12-07T07:26:12;9.93;;;7.15;;
209;SDS011;90;48.810;9.120;2022-12-07T07:28:39;11.88;;;7.40;;
209;SDS011;90;48.810;9.120;2022-12-07T07:31:06;10.82;;;6.63;;
209;SDS011;90;48.810;9.120;2022-12-07T07:33:33;10.15;;;7.05;;
209;SDS011;90;48.810;9.120;2022-12-07T07:36:01;10.15;;;6.70;;
209;SDS011;90;48.810;9.120;2022-12-07T07:38:28;11.32;;;6.57;;
209;SDS011;90;48.810;9.120;2022-12-07T07:40:57;9.13;;;6.63;;
209;SDS011;90;48.810;9.120;2022-12-07T07:43:24;13.63;;;7.72;;
209;SDS011;90;48.810;9.120;2022-12-07T07:45:51;8.00;;;6.43;;
209;SDS011;90;48.810;9.120;2022-12-07T07:48:18;10.60;;;7.30;;
209;SDS011;90;48.810;9.120;2022-12-07T07:50:44;11.23;;;6.95;;
209;SDS011;90;48.810;9.120;2022-12-07T07:53:12;10.93;;;7.60;;
209;SDS011;90;48.810;9.120;2022-12-07T07:55:39;10.05;;;7.38;;
209;SDS011;90;48.810;9.120;2022-12-07T07:58:07;9.93;;;6.80;;
209;SDS011;90;48.810;9.120;2022-12-07T08:00:34;12.30;;;7.60;;
209;SDS011;90;48.810;9.120;2022-12-07T08:03:01;11.45;;;7.25;;
209;SDS011;90;48.810;9.120;2022-12-07T08:05:29;8.82;;;6.22;;
209;SDS011;90;48.810;9.120;2022-12-07T08:07:57;9.75;;;6.75;;
209;SDS011;90;48.810;9.120;2022-12-07T08:10:24;12.13;;;7.75;;
209;SDS011;90;48.810;9.120;2022-12-07T08:12:52;10.45;;;6.95;;
209;SDS011;90;48.810;9.120;2022-12-07T08:15:40;10.80;;;6.82;;
209;SDS011;90;48.810;9.120;2022-12-07T08:18:08;11.30;;;6.40;;
209;SDS011;90;48.810;9.120;2022-12-07T08:20:37;10.00;;;6.43;;
209;SDS011;90;48.810;9.120;2022-12-07T08:23:07;11.27;;;6.65;;
209;SDS011;90;48.810;9.120;2022-12-07T08:25:35;11.10;;;6.55;;
209;SDS011;90;48.810;9.120;2022-12-07T08:28:04;8.75;;;6.30;;
209;SDS011;90;48.810;9.120;2022-12-07T08:30:32;10.48;;;7.38;;
209;SDS011;90;48.810;9.120;2022-12-07T08:33:01;13.98;;;6.97;;
209;SDS011;90;48.810;9.120;2022-12-07T08:35:28;13.38;;;7.53;;
209;SDS011;90;48.810;9.120;2022-12-07T08:37:55;12.10;;;6.20;;
209;SDS011;90;48.810;9.120;2022-12-07T08:40:23;10.35;;;6.30;;
209;SDS011;90;48.810;9.120;2022-12-07T08:42:50;9.93;;;6.45;;
209;SDS011;90;48.810;9.120;2022-12-07T08:45:18;8.98;;;6.25;;
209;SDS011;90;48.810;9.120;2022-12-07T08:47:48;13.18;;;7.00;;
209;SDS011;90;48.810;9.120;2022-12-07T08:50:19;11.73;;;6.90;;
209;SDS011;90;48.810;9.120;2022-12-07T08:52:47;9.77;;;5.75;;
209;SDS011;90;48.810;9.120;2022-12-07T08:55:16;8.48;;;6.07;;
209;SDS011;90;48.810;9.120;2022-12-07T08:57:43;7.90;;;5.95;;
209;SDS011;90;48.810;9.120;2022-12-07T09:00:13;7.55;;;6.05;;
209;SDS011;90;48.810;9.120;2022-12-07T09:02:42;9.50;;;5.68;;
209;SDS011;90;48.810;9.120;2022-12-07T09:05:10;9.18;;;5.70;;
209;SDS011;90;48.810;9.120;2022-12-07T09:07:38;8.77;;;5.97;;
209;SDS011;90;48.810;9.120;2022-12-07T09:10:06;8.70;;;6.28;;
209;SDS011;90;48.810;9.120;2022-12-07T09:12:33;8.48;;;5.90;;
209;SDS011;90;48.810;9.120;2022-12-07T09:15:00;10.48;;;6.22;;
209;SDS011;90;48.810;9.120;2022-12-07T09:17:27;8.05;;;5.70;;
209;SDS011;90;48.810;9.120;2022-12-07T09:19:58;10.15;;;5.85;;
209;SDS011;90;48.810;9.120;2022-12-07T09:22:28;8.90;;;5.78;;
209;SDS011;90;48.810;9.120;2022-12-07T09:24:56;8.73;;;5.75;;
209;SDS011;90;48.810;9.120;2022-12-07T09:27:23;6.40;;;5.15;;
209;SDS011;90;48.810;9.120;2022-12-07T09:29:51;8.55;;;5.50;;
209;SDS011;90;48.810;9.120;2022-12-07T09:32:18;8.60;;;6.00;;
209;SDS011;90;48.810;9.120;2022-12-07T09:34:46;6.78;;;5.43;;
209;SDS011;90;48.810;9.120;2022-12-07T09:37:14;7.78;;;5.75;;
209;SDS011;90;48.810;9.120;2022-12-07T09:39:41;6.47;;;5.03;;
209;SDS011;90;48.810;9.120;2022-12-07T09:42:11;6.35;;;5.35;;
209;SDS011;90;48.810;9.120;2022-12-07T09:44:51;6.65;;;5.35;;
209;SDS011;90;48.810;9.120;2022-12-07T09:47:19;5.10;;;4.57;;
209;SDS011;90;48.810;9.120;2022-12-07T09:49:48;9.10;;;5.25;;
209;SDS011;90;48.810;9.120;2022-12-07T09:52:17;6.90;;;5.28;;
209;SDS011;90;48.810;9.120;2022-12-07T09:54:46;6.68;;;5.70;;
209;SDS011;90;48.810;9.120;2022-12-07T09:57:16;7.93;;;5.70;;
209;SDS011;90;48.810;9.120;2022-12-07T09:59:44;8.73;;;5.90;;
209;SDS011;90;48.810;9.120;2022-12-07T10:02:34;7.93;;;5.70;;
209;SDS011;90;48.810;9.120;2022-12-07T10:05:04;6.85;;;5.35;;
209;SDS011;90;48.810;9.120;2022-12-07T10:07:32;7.50;;;5.53;;
209;SDS011;90;48.810;9.120;2022-12-07T10:10:01;8.45;;;5.30;;
209;SDS011;90;48.810;9.120;2022-12-07T10:12:31;8.30;;;5.72;;
209;SDS011;90;48.810;9.120;2022-12-07T10:15:22;10.20;;;6.15;;
209;SDS011;90;48.810;9.120;2022-12-07T10:17:51;10.32;;;5.97;;
209;SDS011;90;48.810;9.120;2022-12-07T10:20:20;10.52;;;6.40;;
209;SDS011;90;48.810;9.120;2022-12-07T10:23:00;10.57;;;6.00;;
209;SDS011;90;48.810;9.120;2022-12-07T10:25:30;7.60;;;6.30;;
209;SDS011;90;48.810;9.120;2022-12-07T10:28:08;8.65;;;5.68;;
209;SDS011;90;48.810;9.120;2022-12-07T10:30:49;9.88;;;6.40;;
209;SDS011;90;48.810;9.120;2022-12-07T10:33:32;11.25;;;5.97;;
209;SDS011;90;48.810;9.120;2022-12-07T10:36:08;8.15;;;6.18;;
209;SDS011;90;48.810;9.120;2022-12-07T10:38:44;8.48;;;6.30;;
209;SDS011;90;48.810;9.120;2022-12-07T10:41:13;11.15;;;6.10;;
209;SDS011;90;48.810;9.120;2022-12-07T10:43:47;8.15;;;5.70;;
209;SDS011;90;48.810;9.120;2022-12-07T10:46:22;6.65;;;5.00;;
209;SDS011;90;48.810;9.120;2022-12-07T10:49:15;8.18;;;5.68;;
209;SDS011;90;48.810;9.120;2022-12-07T10:52:00;8.65;;;5.95;;
209;SDS011;90;48.810;9.120;2022-12-07T10:54:36;7.43;;;5.07;;
209;SDS011;90;48.810;9.120;2022-12-07T10:57:18;6.88;;;5.28;;
209;SDS011;90;48.810;9.120;2022-12-07T11:00:02;3.88;;;3.72;;
209;SDS011;90;48.810;9.120;2022-12-07T11:02:39;3.72;;;3.53;;
209;SDS011;90;48.810;9.120;2022-12-07T11:05:29;4.30;;;3.80;;
209;SDS011;90;48.810;9.120;2022-12-07T11:08:03;3.55;;;3.10;;
209;SDS011;90;48.810;9.120;2022-12-07T11:10:40;3.65;;;3.38;;
209;SDS011;90;48.810;9.120;2022-12-07T11:13:25;3.20;;;3.05;;
209;SDS011;90;48.810;9.120;2022-12-07T11:16:13;4.75;;;3.25;;
209;SDS011;90;48.810;9.120;2022-12-07T11:19:05;3.35;;;3.15;;
209;SDS011;90;48.810;9.120;2022-12-07T11:21:44;3.90;;;3.70;;
209;SDS011;90;48.810;9.120;2022-12-07T11:24:20;3.40;;;3.20;;
209;SDS011;90;48.810;9.120;2022-12-07T11:26:59;4.03;;;3.72;;
209;SDS011;90;48.810;9.120;2022-12-07T11:29:40;4.55;;;4.25;;
209;SDS011;90;48.810;9.120;2022-12-07T11:32:25;9.82;;;4.63;;
209;SDS011;90;48.810;9.120;2022-12-07T11:35:08;8.80;;;5.05;;
209;SDS011;90;48.810;9.120;2022-12-07T11:37:43;8.32;;;5.90;;
209;SDS011;90;48.810;9.120;2022-12-07T11:40:14;9.20;;;6.88;;
209;SDS011;90;48.810;9.120;2022-12-07T11:42:46;9.88;;;7.15;;
209;SDS011;90;48.810;9.120;2022-12-07T11:45:19;16.40;;;8.27;;
209;SDS011;90;48.810;9.120;2022-12-07T11:47:54;13.52;;;7.50;;
209;SDS011;90;48.810;9.120;2022-12-07T11:50:26;15.15;;;7.05;;
209;SDS011;90;48.810;9.120;2022-12-07T11:52:58;11.98;;;8.00;;
209;SDS011;90;48.810;9.120;2022-12-07T11:55:30;14.43;;;8.48;;
209;SDS011;90;48.810;9.120;2022-12-07T11:58:09;14.95;;;9.50;;
209;SDS011;90;48.810;9.120;2022-12-07T12:00:47;13.02;;;8.70;;
209;SDS011;90;48.810;9.120;2022-12-07T12:03:20;13.13;;;8.02;;
209;SDS011;90;48.810;9.120;2022-12-07T12:05:55;9.68;;;7.65;;
209;SDS011;90;48.810;9.120;2022-12-07T12:08:23;13.43;;;8.10;;
209;SDS011;90;48.810;9.120;2022-12-07T12:11:00;15.18;;;8.35;;
209;SDS011;90;48.810;9.120;2022-12-07T12:13:45;13.85;;;9.10;;
209;SDS011;90;48.810;9.120;2022-12-07T12:19:26;14.27;;;8.65;;
209;SDS011;90;48.810;9.120;2022-12-07T12:22:03;11.55;;;7.68;;
209;SDS011;90;48.810;9.120;2022-12-07T12:24:36;11.02;;;8.10;;
209;SDS011;90;48.810;9.120;2022-12-07T12:27:07;11.02;;;7.70;;
209;SDS011;90;48.810;9.120;2022-12-07T12:29:39;11.15;;;7.90;;
209;SDS011;90;48.810;9.120;2022-12-07T12:32:12;14.75;;;8.75;;
209;SDS011;90;48.810;9.120;2022-12-07T12:37:40;18.08;;;9.35;;
209;SDS011;90;48.810;9.120;2022-12-07T12:55:15;9.15;;;6.93;;
209;SDS011;90;48.810;9.120;2022-12-07T12:57:46;10.45;;;7.22;;
209;SDS011;90;48.810;9.120;2022-12-07T13:00:34;9.93;;;7.00;;
209;SDS011;90;48.810;9.120;2022-12-07T13:03:01;10.98;;;7.65;;
209;SDS011;90;48.810;9.120;2022-12-07T13:05:28;10.50;;;7.95;;
209;SDS011;90;48.810;9.120;2022-12-07T13:07:57;11.27;;;7.90;;
209;SDS011;90;48.810;9.120;2022-12-07T13:13:28;11.82;;;7.85;;
209;SDS011;90;48.810;9.120;2022-12-07T13:25:18;10.05;;;7.18;;
209;SDS011;90;48.810;9.120;2022-12-07T13:27:50;12.93;;;8.23;;
209;SDS011;90;48.810;9.120;2022-12-07T13:30:23;15.32;;;8.25;;
209;SDS011;90;48.810;9.120;2022-12-07T13:32:54;13.82;;;8.30;;
209;SDS011;90;48.810;9.120;2022-12-07T13:35:27;10.65;;;7.70;;
209;SDS011;90;48.810;9.120;2022-12-07T13:37:58;10.82;;;7.47;;
209;SDS011;90;48.810;9.120;2022-12-07T13:40:25;11.20;;;8.13;;
209;SDS011;90;48.810;9.120;2022-12-07T13:43:01;11.13;;;7.72;;
209;SDS011;90;48.810;9.120;2022-12-07T13:45:32;12.70;;;7.60;;
209;SDS011;90;48.810;9.120;2022-12-07T13:48:15;12.77;;;7.93;;
209;SDS011;90;48.810;9.120;2022-12-07T13:50:52;12.85;;;7.90;;
209;SDS011;90;48.810;9.120;2022-12-07T13:53:19;12.20;;;7.93;;
209;SDS011;90;48.810;9.120;2022-12-07T13:55:47;12.88;;;8.02;;
209;SDS011;90;48.810;9.120;2022-12-07T13:58:16;13.30;;;8.73;;
209;SDS011;90;48.810;9.120;2022-12-07T14:00:43;11.82;;;7.95;;
209;SDS011;90;48.810;9.120;2022-12-07T14:03:24;12.68;;;8.30;;
209;SDS011;90;48.810;9.120;2022-12-07T14:06:04;13.02;;;8.27;;
209;SDS011;90;48.810;9.120;2022-12-07T14:08:33;13.75;;;8.63;;
209;SDS011;90;48.810;9.120;2022-12-07T14:11:00;13.10;;;8.65;;
209;SDS011;90;48.810;9.120;2022-12-07T14:13:30;15.90;;;8.70;;
209;SDS011;90;48.810;9.120;2022-12-07T14:15:59;12.23;;;8.70;;
209;SDS011;90;48.810;9.120;2022-12-07T14:18:26;14.88;;;8.45;;
209;SDS011;90;48.810;9.120;2022-12-07T14:21:04;16.42;;;8.98;;
209;SDS011;90;48.810;9.120;2022-12-07T14:23:32;15.68;;;9.10;;
209;SDS011;90;48.810;9.120;2022-12-07T14:26:05;14.20;;;9.35;;
209;SDS011;90;48.810;9.120;2022-12-07T14:28:36;15.93;;;9.55;;
209;SDS011;90;48.810;9.120;2022-12-07T14:31:07;15.93;;;8.95;;
209;SDS011;90;48.810;9.120;2022-12-07T14:33:38;13.77;;;9.43;;
209;SDS011;90;48.810;9.120;2022-12-07T14:36:05;14.30;;;8.60;;
209;SDS011;90;48.810;9.120;2022-12-07T14:38:34;14.38;;;8.77;;
209;SDS011;90;48.810;9.120;2022-12-07T14:41:02;17.52;;;9.02;;
209;SDS011;90;48.810;9.120;2022-12-07T14:43:49;18.42;;;9.02;;
209;SDS011;90;48.810;9.120;2022-12-07T14:46:16;13.73;;;8.70;;
209;SDS011;90;48.810;9.120;2022-12-07T14:48:43;14.13;;;8.68;;
209;SDS011;90;48.810;9.120;2022-12-07T14:51:10;14.73;;;8.88;;
209;SDS011;90;48.810;9.120;2022-12-07T14:53:39;17.35;;;10.02;;
209;SDS011;90;48.810;9.120;2022-12-07T14:56:08;15.05;;;10.30;;
209;SDS011;90;48.810;9.120;2022-12-07T14:58:35;19.63;;;10.82;;
209;SDS011;90;48.810;9.120;2022-12-07T15:01:04;15.60;;;9.30;;
209;SDS011;90;48.810;9.120;2022-12-07T15:03:31;14.52;;;8.45;;
209;SDS011;90;48.810;9.120;2022-12-07T15:05:59;10.20;;;6.95;;
209;SDS011;90;48.810;9.120;2022-12-07T15:08:27;8.50;;;7.03;;
209;SDS011;90;48.810;9.120;2022-12-07T15:10:54;11.70;;;8.15;;
209;SDS011;90;48.810;9.120;2022-12-07T15:13:21;14.15;;;9.63;;
209;SDS011;90;48.810;9.120;2022-12-07T15:16:07;15.00;;;9.05;;
209;SDS011;90;48.810;9.120;2022-12-07T15:18:36;16.38;;;9.10;;
209;SDS011;90;48.810;9.120;2022-12-07T15:21:04;17.15;;;9.35;;
209;SDS011;90;48.810;9.120;2022-12-07T15:23:31;15.60;;;10.45;;
209;SDS011;90;48.810;9.120;2022-12-07T15:25:58;13.75;;;8.55;;
209;SDS011;90;48.810;9.120;2022-12-07T15:28:25;14.00;;;8.35;;
209;SDS011;90;48.810;9.120;2022-12-07T15:30:52;17.08;;;10.65;;
209;SDS011;90;48.810;9.120;2022-12-07T15:33:20;13.30;;;8.85;;
209;SDS011;90;48.810;9.120;2022-12-07T15:35:47;14.70;;;9.80;;
209;SDS011;90;48.810;9.120;2022-12-07T15:38:14;17.83;;;8.90;;
209;SDS011;90;48.810;9.120;2022-12-07T15:40:41;19.92;;;10.85;;
209;SDS011;90;48.810;9.120;2022-12-07T15:43:08;17.27;;;10.32;;
209;SDS011;90;48.810;9.120;2022-12-07T15:45:55;24.15;;;12.18;;
209;SDS011;90;48.810;9.120;2022-12-07T15:48:23;20.33;;;10.90;;
209;SDS011;90;48.810;9.120;2022-12-07T15:50:50;22.00;;;12.60;;
209;SDS011;90;48.810;9.120;2022-12-07T15:53:18;26.33;;;15.27;;
209;SDS011;90;48.810;9.120;2022-12-07T15:55:45;31.20;;;12.35;;
209;SDS011;90;48.810;9.120;2022-12-07T15:58:12;18.25;;;10.25;;
209;SDS011;90;48.810;9.120;2022-12-07T16:00:39;20.08;;;10.70;;
209;SDS011;90;48.810;9.120;2022-12-07T16:03:06;17.15;;;10.60;;
209;SDS011;90;48.810;9.120;2022-12-07T16:05:34;21.75;;;11.05;;
209;SDS011;90;48.810;9.120;2022-12-07T16:08:01;22.50;;;11.95;;
209;SDS011;90;48.810;9.120;2022-12-07T16:10:28;21.55;;;10.85;;
209;SDS011;90;48.810;9.120;2022-12-07T16:12:55;18.73;;;11.00;;
209;SDS011;90;48.810;9.120;2022-12-07T16:15:22;19.42;;;12.02;;
209;SDS011;90;48.810;9.120;2022-12-07T16:17:51;27.08;;;12.98;;
209;SDS011;90;48.810;9.120;2022-12-07T16:20:20;24.60;;;13.18;;
209;SDS011;90;48.810;9.120;2022-12-07T16:22:50;24.50;;;12.65;;
209;SDS011;90;48.810;9.120;2022-12-07T16:25:18;26.85;;;12.90;;
209;SDS011;90;48.810;9.120;2022-12-07T16:27:45;24.45;;;12.57;;
209;SDS011;90;48.810;9.120;2022-12-07T16:30:13;21.63;;;11.80;;
209;SDS011;90;48.810;9.120;2022-12-07T16:32:41;25.92;;;12.55;;
209;SDS011;90;48.810;9.120;2022-12-07T16:35:08;26.88;;;13.40;;
209;SDS011;90;48.810;9.120;2022-12-07T16:37:36;21.60;;;12.25;;
209;SDS011;90;48.810;9.120;2022-12-07T16:40:05;24.00;;;12.07;;
209;SDS011;90;48.810;9.120;2022-12-07T16:42:33;24.55;;;12.70;;